Time;durP1;ratioP1;P1;durP2;ratioP2;P2;SDS_P1;SDS_P2;PMS_P1;PMS_P2;Temp;Humidity;BMP_temperature;BMP_pressure;BME280_temperature;BME280_humidity;BME280_pressure;Samples;Min_cycle;Max_cycle;Signal;HPM_P1;HPM_P2
2022/05/31 00:02:24;;;;;;;11.55;5.60;;;;;;;16.04;89.63;100322.22;1675148;86;21142;-63
2022/05/31 00:04:54;;;;;;;9.85;5.70;;;;;;;16.05;89.81;100323.91;1675572;85;21039;-63
2022/05/31 00:07:23;;;;;;;8.70;4.92;;;;;;;16.04;89.86;100316.69;1675398;85;21067;-62
2022/05/31 00:09:52;;;;;;;8.68;5.10;;;;;;;16.02;89.87;100316.09;1675280;84;21744;-61
2022/05/31 00:12:21;;;;;;;9.30;5.85;;;;;;;16.01;89.87;100314.94;1675309;86;21035;-62
2022/05/31 00:14:51;;;;;;;8.75;5.70;;;;;;;15.98;90.02;100309.88;1675292;85;21059;-62
2022/05/31 00:17:19;;;;;;;10.38;5.65;;;;;;;15.94;90.14;100309.52;1675451;86;21011;-62
2022/05/31 00:19:49;;;;;;;10.80;5.40;;;;;;;15.91;90.21;100319.66;1675520;86;21043;-62
2022/05/31 00:22:21;;;;;;;9.23;5.08;;;;;;;15.87;90.20;100323.12;1675325;85;21043;-63
2022/05/31 00:24:51;;;;;;;8.70;5.62;;;;;;;15.84;90.32;100322.52;1675436;86;21055;-62
2022/05/31 00:27:23;;;;;;;9.68;6.65;;;;;;;15.82;90.38;100321.06;1675387;85;21115;-62
2022/05/31 00:29:52;;;;;;;11.78;6.45;;;;;;;15.79;90.51;100327.05;1674702;86;21035;-61
2022/05/31 00:32:26;;;;;;;11.63;6.80;;;;;;;15.76;90.77;100333.05;1675386;86;21038;-63
2022/05/31 00:34:56;;;;;;;8.98;5.75;;;;;;;15.77;90.92;100332.81;1674663;85;21340;-63
2022/05/31 00:37:25;;;;;;;9.58;6.12;;;;;;;15.78;91.03;100340.56;1658232;86;21364;-63
2022/05/31 00:39:54;;;;;;;9.45;6.58;;;;;;;15.78;91.05;100333.66;1675506;85;21064;-62
2022/05/31 00:42:23;;;;;;;11.45;6.78;;;;;;;15.78;91.04;100335.88;1675853;86;21054;-62
2022/05/31 00:44:52;;;;;;;11.60;6.50;;;;;;;15.78;91.08;100339.18;1674985;85;21035;-62
2022/05/31 00:47:31;;;;;;;8.55;6.40;;;;;;;15.76;91.10;100333.05;1673547;85;21039;-62
2022/05/31 00:50:08;;;;;;;11.85;7.20;;;;;;;15.72;91.05;100324.92;1673532;86;21066;-63
2022/05/31 00:52:47;;;;;;;9.93;6.62;;;;;;;15.66;91.31;100321.71;1673575;86;21114;-62
2022/05/31 00:55:22;;;;;;;11.20;7.05;;;;;;;15.60;91.56;100333.66;1671651;86;21091;-62
2022/05/31 00:58:06;;;;;;;12.53;6.58;;;;;;;15.53;91.78;100328.19;1673790;85;21047;-63
2022/05/31 01:00:36;;;;;;;8.98;5.53;;;;;;;15.52;92.00;100339.77;1673645;86;21831;-61
2022/05/31 01:03:05;;;;;;;10.58;6.42;;;;;;;15.54;91.94;100340.38;1673671;86;21525;-62
2022/05/31 01:05:34;;;;;;;9.30;6.28;;;;;;;15.52;91.73;100340.31;1673660;85;21074;-61
2022/05/31 01:08:05;;;;;;;11.70;6.85;;;;;;;15.51;91.66;100345.52;1673974;85;21706;-62
2022/05/31 01:10:36;;;;;;;9.95;6.22;;;;;;;15.48;91.82;100339.92;1673560;85;22124;-62
2022/05/31 01:13:10;;;;;;;11.30;6.53;;;;;;;15.47;91.84;100338.78;1673719;85;21047;-62
2022/05/31 01:16:09;;;;;;;9.93;6.75;;;;;;;15.44;91.86;100341.47;1673741;85;21039;-63
2022/05/31 01:18:56;;;;;;;8.78;6.45;;;;;;;15.41;91.82;100350.21;1673505;85;21074;-61
2022/05/31 01:21:28;;;;;;;9.65;6.50;;;;;;;15.36;91.86;100347.84;1655978;85;21051;-61
2022/05/31 01:24:09;;;;;;;11.10;5.83;;;;;;;15.35;91.95;100348.38;1669876;85;21078;-62
2022/05/31 01:26:47;;;;;;;11.38;6.05;;;;;;;15.35;92.01;100350.29;1673651;85;21039;-61
2022/05/31 01:29:25;;;;;;;;;;;;;;;15.34;92.11;100354.12;1672729;85;21051;-63
2022/05/31 01:32:04;;;;;;;9.73;5.97;;;;;;;15.33;92.25;100351.05;1673963;85;20150;-61
2022/05/31 01:34:42;;;;;;;13.08;5.78;;;;;;;15.29;92.45;100356.73;1673967;86;21468;-62
2022/05/31 01:37:12;;;;;;;7.58;5.47;;;;;;;15.30;92.65;100349.59;1674073;85;21067;-62
2022/05/31 01:39:52;;;;;;;11.18;5.45;;;;;;;15.33;92.68;100353.28;1673559;86;21079;-61
2022/05/31 01:42:35;;;;;;;10.78;6.20;;;;;;;15.40;92.61;100357.34;1673524;85;21446;-63
2022/05/31 01:45:12;;;;;;;7.87;5.58;;;;;;;15.46;92.45;100355.04;1673773;85;21035;-63
2022/05/31 01:47:43;;;;;;;12.30;5.67;;;;;;;15.50;92.38;100355.73;1675412;86;21119;-63
2022/05/31 01:50:16;;;;;;;10.43;5.60;;;;;;;15.54;92.02;100354.73;1675278;85;21046;-62
2022/05/31 01:52:44;;;;;;;9.35;5.70;;;;;;;15.57;91.71;100354.27;1675671;86;21067;-62
2022/05/31 01:55:14;;;;;;;8.63;5.85;;;;;;;15.59;91.35;100353.53;1675592;86;22373;-62
2022/05/31 01:57:51;;;;;;;9.13;5.95;;;;;;;15.62;91.01;100353.63;1675526;86;21043;-62
2022/05/31 02:00:22;;;;;;;10.25;5.80;;;;;;;15.64;90.52;100362.53;1675274;85;21090;-63
2022/05/31 02:02:52;;;;;;;10.63;5.47;;;;;;;15.67;90.09;100370.36;1675386;86;21134;-62
2022/05/31 02:05:22;;;;;;;10.08;6.17;;;;;;;15.71;89.65;100357.77;1674985;86;21094;-62
2022/05/31 02:08:02;;;;;;;10.20;5.80;;;;;;;15.70;89.16;100364.36;1675242;86;21986;-61
2022/05/31 02:10:33;;;;;;;10.40;6.65;;;;;;;15.68;88.90;100364.59;1675409;84;21086;-62
2022/05/31 02:13:04;;;;;;;11.03;6.08;;;;;;;15.64;88.65;100362.53;1675498;84;21036;-63
2022/05/31 02:15:44;;;;;;;10.03;5.35;;;;;;;15.61;88.48;100356.94;1675372;85;21467;-63
2022/05/31 02:18:18;;;;;;;14.78;6.20;;;;;;;15.59;88.28;100355.45;1661923;85;21082;-62
2022/05/31 02:20:52;;;;;;;8.95;6.00;;;;;;;15.59;88.18;100357.67;1676392;85;21087;-61
2022/05/31 02:23:21;;;;;;;13.25;6.15;;;;;;;15.59;88.17;100357.67;1675657;85;21003;-63
2022/05/31 02:25:50;;;;;;;12.50;7.58;;;;;;;15.63;88.19;100363.07;1675327;86;21079;-62
2022/05/31 02:28:20;;;;;;;13.35;6.12;;;;;;;15.69;88.18;100370.97;1675416;86;21082;-62
2022/05/31 02:30:51;;;;;;;9.43;6.05;;;;;;;15.74;88.08;100362.29;1675332;84;21071;-63
2022/05/31 02:33:20;;;;;;;12.13;6.20;;;;;;;15.79;87.97;100361.05;1675578;85;21038;-60
2022/05/31 02:35:49;;;;;;;8.75;5.42;;;;;;;15.87;88.00;100368.17;1675344;85;21083;-62
2022/05/31 02:38:20;;;;;;;12.07;5.55;;;;;;;15.93;87.90;100363.63;1675745;85;21090;-63
2022/05/31 02:40:49;;;;;;;7.97;5.67;;;;;;;16.00;87.84;100366.61;1675476;86;21121;-62
2022/05/31 02:43:18;;;;;;;11.25;6.05;;;;;;;16.07;87.72;100367.36;1675576;84;21003;-63
2022/05/31 02:45:47;;;;;;;9.35;6.37;;;;;;;16.12;87.61;100370.26;1675239;85;21485;-61
2022/05/31 02:48:17;;;;;;;10.38;5.78;;;;;;;16.17;87.54;100370.40;1675408;85;21059;-64
2022/05/31 02:50:46;;;;;;;11.50;5.37;;;;;;;16.24;87.45;100368.08;1675682;85;21039;-62
2022/05/31 02:53:15;;;;;;;7.67;5.30;;;;;;;16.30;87.38;100368.55;1675689;86;21086;-62
2022/05/31 02:55:44;;;;;;;7.75;5.67;;;;;;;16.33;87.22;100365.31;1675653;85;21075;-62
2022/05/31 02:58:15;;;;;;;11.95;6.15;;;;;;;16.36;87.22;100364.83;1648588;86;21142;-63
2022/05/31 03:00:45;;;;;;;8.85;5.75;;;;;;;16.39;87.11;100372.66;1630575;85;21066;-63
2022/05/31 03:03:22;;;;;;;10.13;5.72;;;;;;;16.41;86.97;100371.88;1649196;85;21079;-62
2022/05/31 03:06:09;;;;;;;11.63;5.60;;;;;;;16.45;86.63;100380.00;1675559;86;21086;-61
2022/05/31 03:08:42;;;;;;;10.15;6.05;;;;;;;16.50;86.52;100381.52;1675477;85;21019;-63
2022/05/31 03:11:21;;;;;;;9.93;6.50;;;;;;;16.54;86.36;100381.89;1675365;85;21114;-63
2022/05/31 03:13:51;;;;;;;;;;;;;;;16.56;86.13;100381.11;1677897;85;21518;-63
2022/05/31 03:16:22;;;;;;;11.60;6.03;;;;;;;16.60;85.94;100389.23;1675452;86;20498;-63
2022/05/31 03:19:03;;;;;;;11.40;5.72;;;;;;;16.59;85.75;100393.08;1675725;85;21070;-62
2022/05/31 03:21:41;;;;;;;11.22;5.60;;;;;;;16.62;85.67;100397.60;1675485;85;21081;-62
2022/05/31 03:24:23;;;;;;;7.33;5.80;;;;;;;16.68;85.57;100398.06;1674801;86;21469;-61
2022/05/31 03:26:53;;;;;;;8.38;6.25;;;;;;;16.73;85.44;100392.66;1675844;85;21103;-61
2022/05/31 03:29:23;;;;;;;8.83;6.12;;;;;;;16.79;85.20;100395.02;1675738;85;21063;-62
2022/05/31 03:31:52;;;;;;;9.15;6.10;;;;;;;16.84;84.85;100399.83;1675263;85;21039;-62
2022/05/31 03:34:21;;;;;;;15.58;6.08;;;;;;;16.87;84.51;100398.81;1675447;85;21055;-62
2022/05/31 03:36:51;;;;;;;7.40;5.78;;;;;;;16.92;84.15;100407.81;1675793;85;21090;-61
2022/05/31 03:39:20;;;;;;;9.60;6.05;;;;;;;16.93;83.78;100414.50;1675493;85;21103;-62
2022/05/31 03:41:49;;;;;;;10.35;6.33;;;;;;;16.96;83.65;100410.41;1675538;86;21075;-62
2022/05/31 03:44:19;;;;;;;8.43;6.03;;;;;;;16.96;83.38;100408.48;1680894;84;21098;-62
2022/05/31 03:46:50;;;;;;;8.50;5.90;;;;;;;16.97;83.17;100406.55;1676277;85;21083;-62
2022/05/31 03:49:33;;;;;;;11.30;6.20;;;;;;;16.99;83.07;100409.92;1675511;85;21043;-63
2022/05/31 03:52:05;;;;;;;9.63;6.58;;;;;;;16.99;82.99;100405.77;1675412;85;21058;-61
2022/05/31 03:54:36;;;;;;;9.95;6.50;;;;;;;16.99;82.95;100409.39;1675692;85;21075;-62
2022/05/31 03:57:18;;;;;;;9.60;6.45;;;;;;;17.01;82.73;100418.30;1675202;86;21454;-63
2022/05/31 03:59:49;;;;;;;8.95;5.85;;;;;;;17.01;82.60;100411.91;1662568;85;21079;-62
2022/05/31 04:02:18;;;;;;;10.85;6.37;;;;;;;17.02;82.53;100419.13;1675511;85;21039;-62
2022/05/31 04:04:48;;;;;;;8.40;6.33;;;;;;;17.04;82.42;100421.13;1675237;86;21071;-63
2022/05/31 04:07:17;;;;;;;8.03;6.50;;;;;;;17.04;82.33;100419.20;1675318;86;21059;-64
2022/05/31 04:09:49;;;;;;;9.88;6.22;;;;;;;17.02;82.06;100421.91;1675437;86;21022;-62
2022/05/31 04:12:19;;;;;;;8.40;5.67;;;;;;;17.04;82.10;100426.12;1681217;85;21071;-63
2022/05/31 04:15:05;;;;;;;9.85;6.53;;;;;;;17.06;82.13;100428.65;1633630;88;21078;-62
2022/05/31 04:17:34;;;;;;;10.03;6.78;;;;;;;17.10;82.17;100436.78;1633471;86;21665;-61
2022/05/31 04:20:04;;;;;;;9.73;7.37;;;;;;;17.12;82.09;100440.14;1633451;86;21078;-61
2022/05/31 04:22:33;;;;;;;9.05;6.65;;;;;;;17.11;81.84;100432.92;1633472;88;21538;-62
2022/05/31 04:25:05;;;;;;;9.30;6.12;;;;;;;17.09;81.80;100435.09;1630315;88;21093;-62
2022/05/31 04:27:36;;;;;;;7.45;6.62;;;;;;;17.09;81.73;100439.24;1612975;88;21097;-62
2022/05/31 04:30:25;;;;;;;9.43;6.80;;;;;;;17.07;81.67;100442.79;1629987;86;21061;-61
2022/05/31 04:32:57;;;;;;;11.18;7.10;;;;;;;17.02;81.80;100448.20;1630478;88;21093;-62
2022/05/31 04:35:31;;;;;;;10.13;6.65;;;;;;;17.00;81.91;100444.83;1633043;88;21543;-62
2022/05/31 04:38:00;;;;;;;10.00;6.22;;;;;;;16.99;82.03;100448.68;1633476;86;21466;-62
2022/05/31 04:40:39;;;;;;;11.40;7.08;;;;;;;17.01;82.12;100447.90;1631429;88;21102;-61
2022/05/31 04:43:10;;;;;;;10.95;6.65;;;;;;;17.01;82.22;100449.28;1630494;86;21521;-62
2022/05/31 04:45:46;;;;;;;11.48;6.97;;;;;;;17.02;82.29;100449.59;1631729;88;21086;-62
2022/05/31 04:48:20;;;;;;;10.58;6.78;;;;;;;16.99;82.27;100450.06;1632349;88;21042;-62
2022/05/31 04:50:49;;;;;;;9.73;5.78;;;;;;;16.99;82.33;100458.37;1650147;86;21047;-62
2022/05/31 04:53:18;;;;;;;12.33;7.17;;;;;;;16.97;82.27;100457.77;1680711;85;21165;-61
2022/05/31 04:55:51;;;;;;;11.45;7.37;;;;;;;16.95;82.34;100466.84;1672265;85;21055;-62
2022/05/31 04:58:20;;;;;;;11.43;6.85;;;;;;;16.95;82.34;100467.69;1675689;86;21070;-62
2022/05/31 05:00:49;;;;;;;10.38;6.60;;;;;;;16.98;82.27;100478.83;1675596;86;21047;-62
2022/05/31 05:03:19;;;;;;;8.23;6.30;;;;;;;16.99;82.08;100490.20;1675814;85;21031;-62
2022/05/31 05:05:50;;;;;;;10.08;6.80;;;;;;;17.00;81.91;100478.05;1675578;85;21423;-62
2022/05/31 05:08:21;;;;;;;10.60;7.53;;;;;;;17.00;81.83;100487.20;1675378;85;21039;-63
2022/05/31 05:10:50;;;;;;;10.58;7.33;;;;;;;17.00;81.77;100486.36;1675582;84;21090;-62
2022/05/31 05:13:21;;;;;;;9.83;7.15;;;;;;;17.00;81.65;100491.89;1675348;85;21047;-63
2022/05/31 05:16:09;;;;;;;12.00;7.42;;;;;;;16.99;81.57;100483.28;1675680;85;21055;-62
2022/05/31 05:18:39;;;;;;;11.55;6.83;;;;;;;16.97;81.42;100486.83;1675530;84;21075;-62
2022/05/31 05:21:11;;;;;;;11.68;7.97;;;;;;;16.97;81.47;100493.20;1675719;85;21039;-62
2022/05/31 05:23:41;;;;;;;10.85;8.03;;;;;;;16.97;81.48;100487.67;1675791;86;21015;-62
2022/05/31 05:26:14;;;;;;;9.85;6.87;;;;;;;16.98;81.30;100487.13;1675687;85;21042;-63
2022/05/31 05:31:40;;;;;;;11.65;7.97;;;;;;;17.00;80.93;100488.58;1675574;85;21071;-63
2022/05/31 05:34:25;;;;;;;12.88;7.65;;;;;;;17.00;80.73;100494.13;1618043;88;21109;-61
2022/05/31 05:36:58;;;;;;;11.48;7.60;;;;;;;17.01;80.56;100501.34;1617552;88;21558;-62
2022/05/31 05:39:27;;;;;;;9.73;7.25;;;;;;;17.01;80.38;100493.58;1617928;89;21096;-62
2022/05/31 05:42:10;;;;;;;9.10;6.50;;;;;;;17.02;80.33;100503.57;1614302;88;21098;-63
2022/05/31 05:44:44;;;;;;;14.73;7.78;;;;;;;17.01;79.86;100501.88;1614803;88;21089;-63
2022/05/31 05:47:14;;;;;;;12.43;8.00;;;;;;;17.00;79.89;100501.04;1619905;88;21088;-62
2022/05/31 05:49:45;;;;;;;11.80;8.18;;;;;;;17.01;79.94;100497.73;1622168;88;21077;-63
2022/05/31 05:52:32;;;;;;;;;;;;;;;17.05;79.93;100494.79;1625144;88;21056;-63
2022/05/31 05:55:18;;;;;;;10.35;7.12;;;;;;;17.08;79.65;100499.84;1599094;89;20246;-64
2022/05/31 05:57:51;;;;;;;9.15;7.30;;;;;;;17.13;79.60;100502.75;1613491;88;21061;-64
2022/05/31 06:00:47;;;;;;;8.83;6.62;;;;;;;17.16;79.30;100496.73;1623001;88;21088;-63
2022/05/31 06:03:24;;;;;;;9.88;7.72;;;;;;;17.18;78.85;100502.03;1622746;88;21065;-63
2022/05/31 06:05:55;;;;;;;8.50;7.00;;;;;;;17.17;78.57;100508.11;1621014;88;21060;-65
2022/05/31 06:08:29;;;;;;;11.68;7.15;;;;;;;17.21;78.69;100507.94;1641789;85;21070;-61
2022/05/31 06:11:17;;;;;;;10.95;7.70;;;;;;;17.25;78.51;100512.45;1680626;85;21087;-63
2022/05/31 06:13:57;;;;;;;10.15;7.33;;;;;;;17.26;78.54;100504.45;1680416;85;21106;-64
2022/05/31 06:16:31;;;;;;;13.62;8.23;;;;;;;17.26;78.25;100519.68;1680483;85;21082;-64
2022/05/31 06:19:07;;;;;;;14.05;7.80;;;;;;;17.27;78.02;100524.98;1680558;85;21122;-65
2022/05/31 06:21:36;;;;;;;11.95;7.50;;;;;;;17.31;78.04;100530.89;1680817;85;21098;-63
2022/05/31 06:24:27;;;;;;;13.18;7.70;;;;;;;17.33;77.90;100532.33;1680830;85;21047;-65
2022/05/31 06:26:58;;;;;;;13.55;8.13;;;;;;;17.36;77.74;100536.02;1656917;85;21070;-63
2022/05/31 06:29:30;;;;;;;17.87;8.60;;;;;;;17.37;77.82;100537.70;1680685;85;21058;-63
2022/05/31 06:32:07;;;;;;;22.80;9.83;;;;;;;17.37;77.55;100536.85;1681051;85;21102;-63
2022/05/31 06:34:52;;;;;;;15.38;7.87;;;;;;;17.36;77.43;100538.78;1680740;85;21494;-62
2022/05/31 06:37:23;;;;;;;9.25;6.50;;;;;;;17.37;77.34;100547.94;1680028;85;21067;-64
2022/05/31 06:39:54;;;;;;;12.18;7.12;;;;;;;17.38;77.20;100553.78;1680833;85;21494;-63
2022/05/31 06:42:35;;;;;;;15.75;7.70;;;;;;;17.38;77.10;100557.39;1680663;85;21518;-63
2022/05/31 06:45:24;;;;;;;11.22;7.90;;;;;;;17.39;76.94;100555.46;1680748;85;21066;-62
2022/05/31 06:47:59;;;;;;;9.98;7.58;;;;;;;17.41;76.89;100561.06;1672395;85;21099;-62
2022/05/31 06:50:31;;;;;;;13.48;7.53;;;;;;;17.40;76.43;100563.53;1671730;85;21047;-63
2022/05/31 06:59:09;;;;;;;11.73;8.95;;;;;;;17.38;76.51;100560.70;1631119;87;21043;-62
2022/05/31 07:01:40;;;;;;;10.68;8.75;;;;;;;17.41;76.55;100565.22;1631168;87;21047;-62
2022/05/31 07:04:09;;;;;;;12.85;7.25;;;;;;;17.44;76.46;100566.13;1648037;86;21114;-62
2022/05/31 07:06:40;;;;;;;11.43;7.20;;;;;;;17.48;76.18;100560.95;1673287;85;21075;-62
2022/05/31 07:09:28;;;;;;;8.73;7.70;;;;;;;17.50;76.06;100561.56;1673831;85;21238;-62
2022/05/31 07:11:58;;;;;;;11.25;8.03;;;;;;;17.52;75.46;100575.17;1673666;86;21090;-63
2022/05/31 07:14:38;;;;;;;9.78;7.90;;;;;;;17.52;75.42;100573.25;1630993;88;21031;-63
2022/05/31 07:17:24;;;;;;;13.38;7.72;;;;;;;17.55;75.48;100576.92;1673785;85;21067;-63
2022/05/31 07:19:55;;;;;;;8.83;6.85;;;;;;;17.58;75.29;100578.41;1673819;85;21071;-64
2022/05/31 07:22:26;;;;;;;9.33;6.50;;;;;;;17.60;75.10;100578.47;1672344;86;21099;-63
2022/05/31 07:24:57;;;;;;;10.23;6.60;;;;;;;17.64;74.76;100577.45;1673636;85;21578;-63
2022/05/31 07:27:28;;;;;;;9.88;6.55;;;;;;;17.66;74.24;100584.98;1673778;85;21043;-63
2022/05/31 07:30:00;;;;;;;10.70;8.18;;;;;;;17.64;73.81;100581.60;1673672;85;21127;-65
2022/05/31 07:32:31;;;;;;;9.53;6.83;;;;;;;17.63;73.79;100602.08;1673394;85;21039;-62
2022/05/31 07:35:04;;;;;;;11.05;8.20;;;;;;;17.63;73.75;100609.86;1670817;85;21124;-63
2022/05/31 07:37:32;;;;;;;11.97;6.00;;;;;;;17.64;73.27;100612.08;1673991;86;21592;-63
2022/05/31 07:40:04;;;;;;;8.73;6.60;;;;;;;17.65;72.89;100613.23;1673657;85;21067;-62
2022/05/31 07:42:33;;;;;;;9.50;6.85;;;;;;;17.65;72.87;100613.23;1674031;86;21046;-62
2022/05/31 07:45:07;;;;;;;7.10;5.70;;;;;;;17.66;72.70;100614.08;1674136;85;21420;-64
2022/05/31 07:47:39;;;;;;;7.58;5.90;;;;;;;17.67;71.76;100613.02;1674242;85;21511;-68
2022/05/31 07:50:11;;;;;;;7.30;5.72;;;;;;;17.69;71.37;100619.17;1661858;84;21046;-63
2022/05/31 07:52:45;;;;;;;9.55;6.30;;;;;;;17.69;70.54;100613.63;1650378;84;21165;-63
2022/05/31 07:55:21;;;;;;;6.80;5.40;;;;;;;17.71;69.44;100617.00;1635257;85;21072;-62
2022/05/31 08:01:03;;;;;;;8.65;5.53;;;;;;;17.70;68.73;100616.70;1669574;85;21129;-63
2022/05/31 08:03:35;;;;;;;6.70;5.05;;;;;;;17.72;68.83;100620.92;1663484;84;21044;-64
2022/05/31 08:06:06;;;;;;;7.53;5.30;;;;;;;17.73;68.45;100628.70;1665512;85;21082;-61
2022/05/31 08:08:36;;;;;;;6.65;5.75;;;;;;;17.72;68.47;100640.33;1680041;85;21069;-63
2022/05/31 08:11:08;;;;;;;10.03;5.72;;;;;;;17.75;68.72;100643.16;1679816;84;21109;-62
2022/05/31 08:13:38;;;;;;;8.53;5.30;;;;;;;17.77;68.56;100640.14;1680022;84;21101;-63
2022/05/31 08:16:08;;;;;;;8.20;5.25;;;;;;;17.79;68.85;100637.44;1680504;84;21106;-63
2022/05/31 08:18:38;;;;;;;6.25;5.15;;;;;;;17.80;68.83;100638.28;1680089;84;21046;-62
2022/05/31 08:21:10;;;;;;;9.78;5.25;;;;;;;17.78;68.45;100635.75;1680029;85;21065;-63
2022/05/31 08:23:41;;;;;;;9.13;5.50;;;;;;;17.80;68.37;100636.89;1680818;84;21054;-62
2022/05/31 08:26:10;;;;;;;6.83;4.60;;;;;;;17.80;68.15;100637.73;1682563;85;21095;-63
2022/05/31 08:28:39;;;;;;;5.62;4.55;;;;;;;17.78;67.31;100643.22;1682579;84;21070;-61
2022/05/31 08:31:11;;;;;;;9.10;4.92;;;;;;;17.74;67.16;100642.31;1682117;85;21093;-61
2022/05/31 08:33:40;;;;;;;15.75;4.78;;;;;;;17.71;66.99;100655.80;1682463;85;21573;-61
2022/05/31 08:36:09;;;;;;;7.10;4.95;;;;;;;17.68;67.16;100664.59;1682528;85;21092;-63
2022/05/31 08:38:40;;;;;;;10.40;5.30;;;;;;;17.66;67.57;100674.53;1682484;85;21471;-61
2022/05/31 08:41:32;;;;;;;6.53;4.80;;;;;;;17.65;67.83;100683.89;1682452;85;21548;-62
2022/05/31 08:44:09;;;;;;;14.45;4.90;;;;;;;17.64;67.76;100692.45;1682471;85;21054;-61
2022/05/31 08:47:36;;;;;;;6.33;4.90;;;;;;;17.64;68.35;100699.38;1682521;85;21465;-64
2022/05/31 08:53:21;;;;;;;6.42;3.70;;;;;;;17.53;70.41;100707.08;1686781;84;22104;-62
2022/05/31 08:59:27;;;;;;;6.60;4.22;;;;;;;17.38;71.09;100697.81;1669926;85;21098;-65
2022/05/31 09:02:00;;;;;;;10.05;4.40;;;;;;;17.27;71.70;100684.23;1639183;85;21096;-63
2022/05/31 09:04:37;;;;;;;7.58;4.62;;;;;;;17.19;72.83;100681.78;1654288;86;21048;-62
2022/05/31 09:07:12;;;;;;;9.58;3.77;;;;;;;17.12;73.72;100689.34;1654096;87;21048;-63
2022/05/31 09:09:51;;;;;;;6.00;3.62;;;;;;;17.02;73.63;100675.21;1651954;87;21377;-66
2022/05/31 09:12:32;;;;;;;9.40;3.65;;;;;;;16.88;73.93;100666.20;1689981;85;21031;-63
2022/05/31 09:15:19;;;;;;;6.47;2.85;;;;;;;16.73;74.39;100672.14;1654166;87;21116;-64
2022/05/31 09:18:24;;;;;;;6.70;2.42;;;;;;;16.58;74.19;100702.08;1654129;87;21080;-64
2022/05/31 09:20:58;;;;;;;4.92;2.90;;;;;;;16.39;74.68;100700.38;1689786;85;21086;-64
2022/05/31 09:23:33;;;;;;;10.63;3.70;;;;;;;16.27;76.19;100704.97;1689750;85;21070;-66
2022/05/31 09:26:40;;;;;;;3.70;2.72;;;;;;;16.14;77.38;100703.14;1663690;85;21043;-63
2022/05/31 09:29:33;;;;;;;4.83;2.25;;;;;;;16.03;78.43;100702.50;1663724;85;21042;-62
2022/05/31 09:32:26;;;;;;;4.33;2.05;;;;;;;15.79;79.75;100695.90;1663673;85;21015;-64
2022/05/31 09:35:27;;;;;;;5.15;2.92;;;;;;;15.56;80.77;100700.58;1663952;85;21002;-65
2022/05/31 09:38:26;;;;;;;3.20;2.10;;;;;;;15.33;81.53;100694.25;1663828;86;22008;-62
2022/05/31 09:41:40;;;;;;;8.10;2.62;;;;;;;15.16;82.48;100704.97;1663643;85;21094;-62
2022/05/31 09:44:36;;;;;;;3.08;2.17;;;;;;;15.05;83.37;100714.47;1664235;86;21038;-64
2022/05/31 09:47:25;;;;;;;4.97;2.90;;;;;;;14.91;83.80;100710.89;1663673;86;21034;-64
2022/05/31 09:49:54;;;;;;;5.08;3.10;;;;;;;14.84;84.47;100723.86;1674199;84;21038;-65
2022/05/31 09:52:47;;;;;;;4.22;2.85;;;;;;;14.75;85.15;100719.13;1690220;85;21082;-66
2022/05/31 09:58:36;;;;;;;6.10;3.15;;;;;;;14.67;86.67;100711.61;1695614;84;21042;-70
2022/05/31 10:01:27;;;;;;;5.95;3.27;;;;;;;14.67;87.52;100704.72;1643017;87;21077;-66
2022/05/31 10:04:27;;;;;;;5.17;3.67;;;;;;;14.65;88.47;100704.09;1623891;88;21079;-63
2022/05/31 10:07:03;;;;;;;4.80;3.75;;;;;;;14.62;89.27;100697.09;1622706;87;21146;-65
2022/05/31 10:09:43;;;;;;;7.67;4.40;;;;;;;14.62;89.83;100703.99;1635681;88;21042;-63
2022/05/31 10:12:29;;;;;;;4.62;3.20;;;;;;;14.67;90.60;100722.12;1635899;88;21149;-73
2022/05/31 10:15:03;;;;;;;5.55;3.90;;;;;;;14.71;91.19;100718.39;1635400;88;21109;-61
2022/05/31 10:17:43;;;;;;;4.85;2.92;;;;;;;14.71;91.10;100717.86;1633745;86;21127;-63
2022/05/31 10:20:26;;;;;;;7.62;3.60;;;;;;;14.69;91.33;100717.23;1633399;88;21559;-66
2022/05/31 10:23:09;;;;;;;5.47;3.47;;;;;;;14.64;91.38;100725.31;1633560;88;21090;-63
2022/05/31 10:25:58;;;;;;;8.78;3.87;;;;;;;14.62;91.69;100732.95;1613994;88;21158;-64
2022/05/31 10:29:03;;;;;;;4.83;3.60;;;;;;;14.64;92.08;100734.96;1633731;88;21063;-62
2022/05/31 10:31:47;;;;;;;5.58;3.92;;;;;;;14.68;92.78;100722.43;1632363;88;21127;-61
2022/05/31 10:34:44;;;;;;;4.78;3.80;;;;;;;14.73;93.44;100713.50;1635107;88;21516;-64
2022/05/31 10:37:28;;;;;;;5.15;3.60;;;;;;;14.75;93.75;100708.09;1635661;88;21098;-61
2022/05/31 10:40:08;;;;;;;6.08;3.62;;;;;;;14.81;94.17;100696.18;1628710;86;21149;-60
2022/05/31 10:42:41;;;;;;;4.05;3.27;;;;;;;14.88;94.36;100691.48;1635889;88;21086;-59
2022/05/31 10:45:16;;;;;;;5.90;3.62;;;;;;;14.91;94.42;100689.66;1635821;88;21034;-59
2022/05/31 10:47:44;;;;;;;6.25;3.52;;;;;;;14.91;94.03;100686.91;1635878;88;21054;-59
2022/05/31 10:50:14;;;;;;;5.95;3.37;;;;;;;14.99;94.50;100682.23;1581785;89;21129;-59
2022/05/31 10:53:08;;;;;;;5.10;3.65;;;;;;;15.01;94.17;100700.80;1610324;88;21132;-60
2022/05/31 10:55:49;;;;;;;6.60;3.50;;;;;;;15.09;94.74;100708.29;1618312;86;21556;-58
2022/05/31 10:58:29;;;;;;;5.78;4.22;;;;;;;15.20;94.74;100712.27;1636213;87;21095;-60
2022/05/31 11:01:05;;;;;;;6.95;4.12;;;;;;;15.31;95.40;100716.24;1633859;88;21109;-59
2022/05/31 11:03:42;;;;;;;6.83;3.60;;;;;;;15.41;95.57;100717.45;1608613;89;21125;-58
2022/05/31 11:06:32;;;;;;;5.30;3.90;;;;;;;15.47;95.20;100716.57;1636236;88;21033;-59
2022/05/31 11:12:27;;;;;;;6.25;3.55;;;;;;;15.53;94.38;100708.77;1666168;86;21556;-59
2022/05/31 11:15:04;;;;;;;4.92;4.30;;;;;;;15.49;93.11;100710.29;1638104;87;21242;-59
2022/05/31 11:18:02;;;;;;;4.92;3.80;;;;;;;15.45;92.62;100717.33;1631061;86;21544;-59
2022/05/31 11:21:01;;;;;;;5.92;3.70;;;;;;;15.47;92.87;100716.57;1637759;87;21128;-59
2022/05/31 11:23:48;;;;;;;4.97;4.00;;;;;;;15.49;92.65;100715.81;1612438;85;21094;-58
2022/05/31 11:26:50;;;;;;;4.95;3.50;;;;;;;15.51;92.48;100720.58;1649519;87;21113;-58
2022/05/31 11:29:54;;;;;;;8.80;3.52;;;;;;;15.55;91.82;100718.22;1635474;87;21052;-62
2022/05/31 11:32:28;;;;;;;5.92;3.60;;;;;;;15.63;91.92;100705.58;1637797;87;21130;-58
2022/05/31 11:35:20;;;;;;;5.15;3.37;;;;;;;15.77;92.21;100697.50;1666376;86;21065;-60
2022/05/31 11:38:17;;;;;;;5.30;3.22;;;;;;;15.95;92.63;100702.78;1608122;87;21136;-58
2022/05/31 11:40:56;;;;;;;4.28;3.20;;;;;;;16.07;92.04;100699.06;1663658;84;21098;-59
2022/05/31 11:43:59;;;;;;;5.10;3.65;;;;;;;16.13;90.22;100696.77;1662960;86;21070;-59
2022/05/31 11:46:44;;;;;;;3.87;3.00;;;;;;;16.14;89.37;100701.22;1663298;86;21081;-61
2022/05/31 11:49:45;;;;;;;5.80;3.40;;;;;;;16.16;88.31;100707.38;1664095;86;21529;-58
2022/05/31 11:53:03;;;;;;;4.37;3.70;;;;;;;16.14;87.31;100708.14;1685852;83;21592;-58
2022/05/31 11:55:43;;;;;;;9.93;3.83;;;;;;;16.15;86.53;100710.36;1689967;85;21078;-58
2022/05/31 11:58:17;;;;;;;5.47;3.15;;;;;;;16.12;85.87;100714.96;1630543;85;21082;-58
2022/05/31 12:01:06;;;;;;;4.30;3.17;;;;;;;16.21;86.93;100722.43;1671371;86;21042;-59
2022/05/31 12:03:54;;;;;;;4.83;2.92;;;;;;;16.25;85.71;100722.29;1681184;85;21507;-57
2022/05/31 12:06:48;;;;;;;5.37;3.60;;;;;;;16.31;85.49;100723.64;1671459;86;21516;-59
2022/05/31 12:09:47;;;;;;;4.75;2.90;;;;;;;16.38;85.48;100726.34;1671541;85;21030;-57
2022/05/31 12:12:32;;;;;;;4.62;3.15;;;;;;;16.49;85.05;100729.20;1671280;86;21065;-59
2022/05/31 12:15:11;;;;;;;5.10;3.20;;;;;;;16.55;83.14;100723.83;1671264;84;21596;-57
2022/05/31 12:17:58;;;;;;;7.08;3.02;;;;;;;16.59;82.87;100731.44;1671300;86;21470;-58
2022/05/31 12:20:32;;;;;;;;;;;;;;;16.65;82.43;100733.32;1673765;84;21074;-58
2022/05/31 12:23:07;;;;;;;5.92;3.00;;;;;;;16.70;81.50;100732.63;1671548;84;20255;-58
2022/05/31 12:25:45;;;;;;;4.45;3.00;;;;;;;16.73;81.40;100730.25;1671062;84;21066;-59
2022/05/31 12:28:23;;;;;;;;;;;;;;;16.83;81.64;100726.09;1668555;84;21492;-58
2022/05/31 12:31:11;;;;;;;5.28;3.50;;;;;;;16.91;81.42;100716.98;1671314;86;20162;-58
2022/05/31 12:33:49;;;;;;;7.15;4.15;;;;;;;16.97;81.01;100709.67;1671198;84;21089;-59
2022/05/31 12:36:24;;;;;;;3.37;3.08;;;;;;;17.02;80.76;100713.97;1671189;86;21030;-59